sensor_id;sensor_type;location;lat;lon;timestamp;temperature;humidity
39503;DHT22;26970;49.900;10.774;2022-08-27T00:02:01;18.20;99.90
39503;DHT22;26970;49.900;10.774;2022-08-27T00:04:26;18.00;99.90
39503;DHT22;26970;49.900;10.774;2022-08-27T00:06:53;18.10;99.90
39503;DHT22;26970;49.900;10.774;2022-08-27T00:09:18;18.10;99.90
39503;DHT22;26970;49.900;10.774;2022-08-27T00:11:44;18.20;99.90
39503;DHT22;26970;49.900;10.774;2022-08-27T00:14:10;18.30;99.90
39503;DHT22;26970;49.900;10.774;2022-08-27T00:16:36;18.10;99.90
39503;DHT22;26970;49.900;10.774;2022-08-27T00:19:02;18.10;99.90
39503;DHT22;26970;49.900;10.774;2022-08-27T00:21:27;18.10;99.90
39503;DHT22;26970;49.900;10.774;2022-08-27T00:23:53;18.10;99.90
39503;DHT22;26970;49.900;10.774;2022-08-27T00:26:18;18.20;99.90
39503;DHT22;26970;49.900;10.774;2022-08-27T00:28:44;18.20;99.90
39503;DHT22;26970;49.900;10.774;2022-08-27T00:31:10;18.10;99.90
39503;DHT22;26970;49.900;10.774;2022-08-27T00:33:35;18.20;99.90
39503;DHT22;26970;49.900;10.774;2022-08-27T00:36:03;18.10;99.90
39503;DHT22;26970;49.900;10.774;2022-08-27T00:38:29;18.10;99.90
39503;DHT22;26970;49.900;10.774;2022-08-27T00:40:55;18.10;99.90
39503;DHT22;26970;49.900;10.774;2022-08-27T00:43:41;18.20;99.90
39503;DHT22;26970;49.900;10.774;2022-08-27T00:46:19;18.20;99.90
39503;DHT22;26970;49.900;10.774;2022-08-27T00:48:46;18.20;99.90
39503;DHT22;26970;49.900;10.774;2022-08-27T00:51:13;18.30;99.90
39503;DHT22;26970;49.900;10.774;2022-08-27T00:53:39;18.30;99.90
39503;DHT22;26970;49.900;10.774;2022-08-27T00:56:17;18.50;99.90
39503;DHT22;26970;49.900;10.774;2022-08-27T00:58:47;18.40;99.90
39503;DHT22;26970;49.900;10.774;2022-08-27T01:01:16;18.40;99.90
39503;DHT22;26970;49.900;10.774;2022-08-27T01:03:44;18.50;99.90
39503;DHT22;26970;49.900;10.774;2022-08-27T01:06:13;18.50;99.90
39503;DHT22;26970;49.900;10.774;2022-08-27T01:08:44;18.40;99.90
39503;DHT22;26970;49.900;10.774;2022-08-27T01:11:13;18.40;99.90
39503;DHT22;26970;49.900;10.774;2022-08-27T01:13:39;18.50;99.90
39503;DHT22;26970;49.900;10.774;2022-08-27T01:16:06;18.50;99.90
39503;DHT22;26970;49.900;10.774;2022-08-27T01:18:34;18.50;99.90
39503;DHT22;26970;49.900;10.774;2022-08-27T01:21:34;18.50;99.90
39503;DHT22;26970;49.900;10.774;2022-08-27T01:24:23;18.60;99.90
39503;DHT22;26970;49.900;10.774;2022-08-27T01:26:51;18.60;99.90
39503;DHT22;26970;49.900;10.774;2022-08-27T01:29:17;18.60;99.90
39503;DHT22;26970;49.900;10.774;2022-08-27T01:31:43;18.50;99.90
39503;DHT22;26970;49.900;10.774;2022-08-27T01:34:18;18.60;99.90
39503;DHT22;26970;49.900;10.774;2022-08-27T01:36:43;18.70;99.90
39503;DHT22;26970;49.900;10.774;2022-08-27T01:39:09;18.70;99.90
39503;DHT22;26970;49.900;10.774;2022-08-27T01:41:34;18.70;99.90
39503;DHT22;26970;49.900;10.774;2022-08-27T01:44:00;18.60;99.90
39503;DHT22;26970;49.900;10.774;2022-08-27T01:46:27;18.70;99.90
39503;DHT22;26970;49.900;10.774;2022-08-27T01:48:53;18.60;99.90
39503;DHT22;26970;49.900;10.774;2022-08-27T01:51:19;18.50;99.90
39503;DHT22;26970;49.900;10.774;2022-08-27T01:53:45;18.50;99.90
39503;DHT22;26970;49.900;10.774;2022-08-27T01:56:11;18.50;99.90
39503;DHT22;26970;49.900;10.774;2022-08-27T01:58:37;18.40;99.90
39503;DHT22;26970;49.900;10.774;2022-08-27T02:01:07;18.50;99.90
39503;DHT22;26970;49.900;10.774;2022-08-27T02:03:34;18.50;99.90
39503;DHT22;26970;49.900;10.774;2022-08-27T02:06:04;18.40;99.90
39503;DHT22;26970;49.900;10.774;2022-08-27T02:08:30;18.40;99.90
39503;DHT22;26970;49.900;10.774;2022-08-27T02:10:56;18.40;99.90
39503;DHT22;26970;49.900;10.774;2022-08-27T02:13:21;18.40;99.90
39503;DHT22;26970;49.900;10.774;2022-08-27T02:15:47;18.40;99.90
39503;DHT22;26970;49.900;10.774;2022-08-27T02:18:13;18.20;99.90
39503;DHT22;26970;49.900;10.774;2022-08-27T02:20:44;18.20;99.90
39503;DHT22;26970;49.900;10.774;2022-08-27T02:23:10;18.10;99.90
39503;DHT22;26970;49.900;10.774;2022-08-27T02:25:36;18.00;99.90
39503;DHT22;26970;49.900;10.774;2022-08-27T02:28:02;17.90;99.90
39503;DHT22;26970;49.900;10.774;2022-08-27T02:30:29;17.90;99.90
39503;DHT22;26970;49.900;10.774;2022-08-27T02:32:56;17.90;99.90
39503;DHT22;26970;49.900;10.774;2022-08-27T02:35:23;17.90;99.90
39503;DHT22;26970;49.900;10.774;2022-08-27T02:37:49;17.90;99.90
39503;DHT22;26970;49.900;10.774;2022-08-27T02:40:17;18.00;99.90
39503;DHT22;26970;49.900;10.774;2022-08-27T02:42:44;17.90;99.90
39503;DHT22;26970;49.900;10.774;2022-08-27T02:45:10;17.90;99.90
39503;DHT22;26970;49.900;10.774;2022-08-27T02:47:36;17.90;99.90
39503;DHT22;26970;49.900;10.774;2022-08-27T02:50:02;17.90;99.90
39503;DHT22;26970;49.900;10.774;2022-08-27T02:52:28;17.90;99.90
39503;DHT22;26970;49.900;10.774;2022-08-27T02:54:55;17.90;99.90
39503;DHT22;26970;49.900;10.774;2022-08-27T02:57:21;18.00;99.90
39503;DHT22;26970;49.900;10.774;2022-08-27T02:59:48;18.00;99.90
39503;DHT22;26970;49.900;10.774;2022-08-27T03:02:14;18.00;99.90
39503;DHT22;26970;49.900;10.774;2022-08-27T03:04:40;18.10;99.90
39503;DHT22;26970;49.900;10.774;2022-08-27T03:07:06;18.10;99.90
39503;DHT22;26970;49.900;10.774;2022-08-27T03:09:32;18.20;99.90
39503;DHT22;26970;49.900;10.774;2022-08-27T03:11:59;18.10;99.90
39503;DHT22;26970;49.900;10.774;2022-08-27T03:14:24;18.20;99.90
39503;DHT22;26970;49.900;10.774;2022-08-27T03:16:50;18.20;99.90
39503;DHT22;26970;49.900;10.774;2022-08-27T03:19:16;18.10;99.90
39503;DHT22;26970;49.900;10.774;2022-08-27T03:21:41;18.10;99.90
39503;DHT22;26970;49.900;10.774;2022-08-27T03:24:07;18.10;99.90
39503;DHT22;26970;49.900;10.774;2022-08-27T03:26:32;18.00;99.90
39503;DHT22;26970;49.900;10.774;2022-08-27T03:28:58;18.00;99.90
39503;DHT22;26970;49.900;10.774;2022-08-27T03:31:25;18.00;99.90
39503;DHT22;26970;49.900;10.774;2022-08-27T03:33:58;18.00;99.90
39503;DHT22;26970;49.900;10.774;2022-08-27T03:36:25;18.00;99.90
39503;DHT22;26970;49.900;10.774;2022-08-27T03:38:51;18.00;99.90
39503;DHT22;26970;49.900;10.774;2022-08-27T03:41:17;18.00;99.90
39503;DHT22;26970;49.900;10.774;2022-08-27T03:43:44;17.90;99.90
39503;DHT22;26970;49.900;10.774;2022-08-27T03:46:09;17.90;99.90
39503;DHT22;26970;49.900;10.774;2022-08-27T03:48:35;17.90;99.90
39503;DHT22;26970;49.900;10.774;2022-08-27T03:51:07;17.90;99.90
39503;DHT22;26970;49.900;10.774;2022-08-27T03:53:33;17.80;99.90
39503;DHT22;26970;49.900;10.774;2022-08-27T03:55:59;17.80;99.90
39503;DHT22;26970;49.900;10.774;2022-08-27T03:58:25;17.90;99.90
39503;DHT22;26970;49.900;10.774;2022-08-27T04:00:50;17.90;99.90
39503;DHT22;26970;49.900;10.774;2022-08-27T04:03:16;17.90;99.90
39503;DHT22;26970;49.900;10.774;2022-08-27T04:05:42;17.90;99.90
39503;DHT22;26970;49.900;10.774;2022-08-27T04:08:08;17.90;99.90
39503;DHT22;26970;49.900;10.774;2022-08-27T04:10:38;17.90;99.90
39503;DHT22;26970;49.900;10.774;2022-08-27T04:13:03;17.90;99.90
39503;DHT22;26970;49.900;10.774;2022-08-27T04:15:29;17.90;99.90
39503;DHT22;26970;49.900;10.774;2022-08-27T04:17:54;17.90;99.90
39503;DHT22;26970;49.900;10.774;2022-08-27T04:20:20;17.90;99.90
39503;DHT22;26970;49.900;10.774;2022-08-27T04:22:46;17.90;99.90
39503;DHT22;26970;49.900;10.774;2022-08-27T04:25:12;17.90;99.90
39503;DHT22;26970;49.900;10.774;2022-08-27T04:27:38;17.80;99.90
39503;DHT22;26970;49.900;10.774;2022-08-27T04:30:04;17.80;99.90
39503;DHT22;26970;49.900;10.774;2022-08-27T04:32:30;17.80;99.90
39503;DHT22;26970;49.900;10.774;2022-08-27T04:34:57;17.70;99.90
39503;DHT22;26970;49.900;10.774;2022-08-27T04:37:25;17.80;99.90
39503;DHT22;26970;49.900;10.774;2022-08-27T04:39:51;17.80;99.90
39503;DHT22;26970;49.900;10.774;2022-08-27T04:42:18;17.80;99.90
39503;DHT22;26970;49.900;10.774;2022-08-27T04:44:45;17.80;99.90
39503;DHT22;26970;49.900;10.774;2022-08-27T04:47:12;17.90;99.90
39503;DHT22;26970;49.900;10.774;2022-08-27T04:49:38;17.80;99.90
39503;DHT22;26970;49.900;10.774;2022-08-27T04:52:04;17.90;99.90
39503;DHT22;26970;49.900;10.774;2022-08-27T04:54:30;17.90;99.90
39503;DHT22;26970;49.900;10.774;2022-08-27T04:56:56;17.90;99.90
39503;DHT22;26970;49.900;10.774;2022-08-27T04:59:22;17.90;99.90
39503;DHT22;26970;49.900;10.774;2022-08-27T05:01:47;17.90;99.90
39503;DHT22;26970;49.900;10.774;2022-08-27T05:04:14;17.90;99.90
39503;DHT22;26970;49.900;10.774;2022-08-27T05:06:41;17.90;99.90
39503;DHT22;26970;49.900;10.774;2022-08-27T05:09:08;17.80;99.90
39503;DHT22;26970;49.900;10.774;2022-08-27T05:11:34;17.80;99.90
39503;DHT22;26970;49.900;10.774;2022-08-27T05:14:04;17.70;99.90
39503;DHT22;26970;49.900;10.774;2022-08-27T05:16:31;17.70;99.90
39503;DHT22;26970;49.900;10.774;2022-08-27T05:18:58;17.70;99.90
39503;DHT22;26970;49.900;10.774;2022-08-27T05:21:27;17.70;99.90
39503;DHT22;26970;49.900;10.774;2022-08-27T05:23:54;17.90;99.90
39503;DHT22;26970;49.900;10.774;2022-08-27T05:26:21;17.80;99.90
39503;DHT22;26970;49.900;10.774;2022-08-27T05:28:47;17.90;99.90
39503;DHT22;26970;49.900;10.774;2022-08-27T05:31:14;18.00;99.90
39503;DHT22;26970;49.900;10.774;2022-08-27T05:33:40;18.00;99.90
39503;DHT22;26970;49.900;10.774;2022-08-27T05:36:13;18.00;99.90
39503;DHT22;26970;49.900;10.774;2022-08-27T05:38:39;18.00;99.90
39503;DHT22;26970;49.900;10.774;2022-08-27T05:41:08;18.00;99.90
39503;DHT22;26970;49.900;10.774;2022-08-27T05:43:35;18.10;99.90
39503;DHT22;26970;49.900;10.774;2022-08-27T05:46:06;18.10;99.90
39503;DHT22;26970;49.900;10.774;2022-08-27T05:48:33;18.20;99.90
39503;DHT22;26970;49.900;10.774;2022-08-27T05:51:07;18.20;99.90
39503;DHT22;26970;49.900;10.774;2022-08-27T05:53:34;18.30;99.90
39503;DHT22;26970;49.900;10.774;2022-08-27T05:56:00;18.20;99.90
39503;DHT22;26970;49.900;10.774;2022-08-27T05:58:26;18.10;99.90
39503;DHT22;26970;49.900;10.774;2022-08-27T06:01:10;18.10;99.90
39503;DHT22;26970;49.900;10.774;2022-08-27T06:03:37;18.00;99.90
39503;DHT22;26970;49.900;10.774;2022-08-27T06:06:08;17.90;99.90
39503;DHT22;26970;49.900;10.774;2022-08-27T06:08:34;17.90;99.90
39503;DHT22;26970;49.900;10.774;2022-08-27T06:11:01;17.90;99.90
39503;DHT22;26970;49.900;10.774;2022-08-27T06:13:27;17.90;99.90
39503;DHT22;26970;49.900;10.774;2022-08-27T06:16:07;17.90;99.90
39503;DHT22;26970;49.900;10.774;2022-08-27T06:18:37;18.00;99.90
39503;DHT22;26970;49.900;10.774;2022-08-27T06:21:06;18.00;99.90
39503;DHT22;26970;49.900;10.774;2022-08-27T06:23:32;17.90;99.90
39503;DHT22;26970;49.900;10.774;2022-08-27T06:25:58;17.90;99.90
39503;DHT22;26970;49.900;10.774;2022-08-27T06:28:26;18.00;99.90
39503;DHT22;26970;49.900;10.774;2022-08-27T06:31:04;18.00;99.90
39503;DHT22;26970;49.900;10.774;2022-08-27T06:33:30;18.00;99.90
39503;DHT22;26970;49.900;10.774;2022-08-27T06:36:00;18.00;99.90
39503;DHT22;26970;49.900;10.774;2022-08-27T06:38:26;18.00;99.90
39503;DHT22;26970;49.900;10.774;2022-08-27T06:40:53;18.00;99.90
39503;DHT22;26970;49.900;10.774;2022-08-27T06:43:19;18.00;99.90
39503;DHT22;26970;49.900;10.774;2022-08-27T06:45:44;18.10;99.90
39503;DHT22;26970;49.900;10.774;2022-08-27T06:48:10;18.10;99.90
39503;DHT22;26970;49.900;10.774;2022-08-27T06:50:40;18.10;99.90
39503;DHT22;26970;49.900;10.774;2022-08-27T06:53:06;18.10;99.90
39503;DHT22;26970;49.900;10.774;2022-08-27T06:55:32;18.20;99.90
39503;DHT22;26970;49.900;10.774;2022-08-27T06:58:04;18.10;99.90
39503;DHT22;26970;49.900;10.774;2022-08-27T07:00:29;18.10;99.90
39503;DHT22;26970;49.900;10.774;2022-08-27T07:02:55;18.10;99.90
39503;DHT22;26970;49.900;10.774;2022-08-27T07:05:21;18.10;99.90
39503;DHT22;26970;49.900;10.774;2022-08-27T07:07:46;18.20;99.90
39503;DHT22;26970;49.900;10.774;2022-08-27T07:10:12;18.10;99.90
39503;DHT22;26970;49.900;10.774;2022-08-27T07:12:38;18.20;99.90
39503;DHT22;26970;49.900;10.774;2022-08-27T07:15:03;18.20;99.90
39503;DHT22;26970;49.900;10.774;2022-08-27T07:17:29;18.30;99.90
39503;DHT22;26970;49.900;10.774;2022-08-27T07:19:55;18.20;99.90
39503;DHT22;26970;49.900;10.774;2022-08-27T07:22:20;18.30;99.90
39503;DHT22;26970;49.900;10.774;2022-08-27T07:24:46;18.30;99.90
39503;DHT22;26970;49.900;10.774;2022-08-27T07:27:12;18.30;99.90
39503;DHT22;26970;49.900;10.774;2022-08-27T07:29:37;18.40;99.90
39503;DHT22;26970;49.900;10.774;2022-08-27T07:32:04;18.40;99.90
39503;DHT22;26970;49.900;10.774;2022-08-27T07:34:29;18.50;99.90
39503;DHT22;26970;49.900;10.774;2022-08-27T07:36:55;18.50;99.90
39503;DHT22;26970;49.900;10.774;2022-08-27T07:39:20;18.40;99.90
39503;DHT22;26970;49.900;10.774;2022-08-27T07:41:46;18.40;99.90
39503;DHT22;26970;49.900;10.774;2022-08-27T07:44:30;18.50;99.90
39503;DHT22;26970;49.900;10.774;2022-08-27T07:46:56;18.40;99.90
39503;DHT22;26970;49.900;10.774;2022-08-27T07:49:23;18.40;99.90
39503;DHT22;26970;49.900;10.774;2022-08-27T07:51:49;18.40;99.90
39503;DHT22;26970;49.900;10.774;2022-08-27T07:54:15;18.40;99.90
39503;DHT22;26970;49.900;10.774;2022-08-27T07:56:41;18.30;99.90
39503;DHT22;26970;49.900;10.774;2022-08-27T07:59:07;18.40;99.90
39503;DHT22;26970;49.900;10.774;2022-08-27T08:01:33;18.40;99.90
39503;DHT22;26970;49.900;10.774;2022-08-27T08:03:58;18.30;99.90
39503;DHT22;26970;49.900;10.774;2022-08-27T08:06:24;18.40;99.90
39503;DHT22;26970;49.900;10.774;2022-08-27T08:08:50;18.40;99.90
39503;DHT22;26970;49.900;10.774;2022-08-27T08:11:17;18.30;99.90
39503;DHT22;26970;49.900;10.774;2022-08-27T08:13:43;18.30;99.90
39503;DHT22;26970;49.900;10.774;2022-08-27T08:16:09;18.40;99.90
39503;DHT22;26970;49.900;10.774;2022-08-27T08:18:35;18.40;99.90
39503;DHT22;26970;49.900;10.774;2022-08-27T08:21:06;18.40;99.90
39503;DHT22;26970;49.900;10.774;2022-08-27T08:23:32;18.50;99.90
39503;DHT22;26970;49.900;10.774;2022-08-27T08:25:59;18.40;99.90
39503;DHT22;26970;49.900;10.774;2022-08-27T08:28:26;18.40;99.90
39503;DHT22;26970;49.900;10.774;2022-08-27T08:30:52;18.50;99.90
39503;DHT22;26970;49.900;10.774;2022-08-27T08:33:19;18.50;99.90
39503;DHT22;26970;49.900;10.774;2022-08-27T08:35:44;18.60;99.90
39503;DHT22;26970;49.900;10.774;2022-08-27T08:38:10;18.60;99.90
39503;DHT22;26970;49.900;10.774;2022-08-27T08:40:41;18.60;99.90
39503;DHT22;26970;49.900;10.774;2022-08-27T08:43:11;18.70;99.90
39503;DHT22;26970;49.900;10.774;2022-08-27T08:45:38;18.70;99.90
39503;DHT22;26970;49.900;10.774;2022-08-27T08:48:19;18.80;99.90
39503;DHT22;26970;49.900;10.774;2022-08-27T08:50:54;18.70;99.90
39503;DHT22;26970;49.900;10.774;2022-08-27T08:53:41;18.70;99.90
39503;DHT22;26970;49.900;10.774;2022-08-27T08:56:13;18.60;99.90
39503;DHT22;26970;49.900;10.774;2022-08-27T08:58:51;18.70;99.90
39503;DHT22;26970;49.900;10.774;2022-08-27T09:01:20;18.60;99.90
39503;DHT22;26970;49.900;10.774;2022-08-27T09:04:01;18.60;99.90
39503;DHT22;26970;49.900;10.774;2022-08-27T09:08:53;18.60;99.90
39503;DHT22;26970;49.900;10.774;2022-08-27T09:14:42;18.70;99.90
39503;DHT22;26970;49.900;10.774;2022-08-27T09:17:10;18.80;99.90
39503;DHT22;26970;49.900;10.774;2022-08-27T09:19:36;18.80;99.90
39503;DHT22;26970;49.900;10.774;2022-08-27T09:27:39;18.90;99.90
39503;DHT22;26970;49.900;10.774;2022-08-27T09:30:27;19.00;99.90
39503;DHT22;26970;49.900;10.774;2022-08-27T09:32:56;19.00;99.90
39503;DHT22;26970;49.900;10.774;2022-08-27T09:35:24;19.10;99.90
39503;DHT22;26970;49.900;10.774;2022-08-27T09:37:53;19.10;99.90
39503;DHT22;26970;49.900;10.774;2022-08-27T09:40:31;19.20;99.90
39503;DHT22;26970;49.900;10.774;2022-08-27T09:43:06;19.30;99.90
39503;DHT22;26970;49.900;10.774;2022-08-27T09:45:33;19.40;99.90
39503;DHT22;26970;49.900;10.774;2022-08-27T09:50:39;19.30;99.90
39503;DHT22;26970;49.900;10.774;2022-08-27T09:53:22;19.50;99.90
39503;DHT22;26970;49.900;10.774;2022-08-27T09:56:09;19.50;99.90
39503;DHT22;26970;49.900;10.774;2022-08-27T09:58:50;19.50;99.90
39503;DHT22;26970;49.900;10.774;2022-08-27T10:01:18;19.60;99.90
39503;DHT22;26970;49.900;10.774;2022-08-27T10:03:44;19.60;99.90
39503;DHT22;26970;49.900;10.774;2022-08-27T10:06:10;19.70;99.90
39503;DHT22;26970;49.900;10.774;2022-08-27T10:08:48;19.90;99.90
39503;DHT22;26970;49.900;10.774;2022-08-27T10:11:28;20.10;99.90
39503;DHT22;26970;49.900;10.774;2022-08-27T10:14:02;20.10;99.90
39503;DHT22;26970;49.900;10.774;2022-08-27T10:16:48;20.20;99.90
39503;DHT22;26970;49.900;10.774;2022-08-27T10:31:20;19.80;99.90
39503;DHT22;26970;49.900;10.774;2022-08-27T10:39:45;19.90;99.90
39503;DHT22;26970;49.900;10.774;2022-08-27T10:42:25;20.00;99.90
39503;DHT22;26970;49.900;10.774;2022-08-27T10:45:10;19.90;99.90
39503;DHT22;26970;49.900;10.774;2022-08-27T10:48:02;20.20;99.90
39503;DHT22;26970;49.900;10.774;2022-08-27T10:50:47;20.10;99.90
39503;DHT22;26970;49.900;10.774;2022-08-27T10:56:20;20.10;99.90
39503;DHT22;26970;49.900;10.774;2022-08-27T11:04:18;20.20;99.90
39503;DHT22;26970;49.900;10.774;2022-08-27T11:06:52;20.20;99.90
39503;DHT22;26970;49.900;10.774;2022-08-27T11:09:44;20.20;99.90
39503;DHT22;26970;49.900;10.774;2022-08-27T11:12:16;20.10;99.90
39503;DHT22;26970;49.900;10.774;2022-08-27T11:14:56;20.10;99.90
39503;DHT22;26970;49.900;10.774;2022-08-27T11:17:34;20.10;99.90
39503;DHT22;26970;49.900;10.774;2022-08-27T11:22:44;20.20;99.90
39503;DHT22;26970;49.900;10.774;2022-08-27T11:28:11;20.40;99.90
39503;DHT22;26970;49.900;10.774;2022-08-27T11:33:21;20.50;99.90
39503;DHT22;26970;49.900;10.774;2022-08-27T11:44:06;20.60;99.90
39503;DHT22;26970;49.900;10.774;2022-08-27T11:46:46;20.60;99.90
39503;DHT22;26970;49.900;10.774;2022-08-27T11:49:34;20.80;99.90
39503;DHT22;26970;49.900;10.774;2022-08-27T11:52:05;20.80;99.90
39503;DHT22;26970;49.900;10.774;2022-08-27T11:54:47;20.70;99.90
39503;DHT22;26970;49.900;10.774;2022-08-27T11:57:14;20.80;99.90
39503;DHT22;26970;49.900;10.774;2022-08-27T11:59:39;20.70;99.90
39503;DHT22;26970;49.900;10.774;2022-08-27T12:02:26;20.80;99.90
39503;DHT22;26970;49.900;10.774;2022-08-27T12:05:05;21.00;99.90
39503;DHT22;26970;49.900;10.774;2022-08-27T12:07:36;21.10;99.90
39503;DHT22;26970;49.900;10.774;2022-08-27T12:16:26;21.00;99.90
39503;DHT22;26970;49.900;10.774;2022-08-27T12:25:56;21.00;99.90
39503;DHT22;26970;49.900;10.774;2022-08-27T12:28:23;21.00;99.90
39503;DHT22;26970;49.900;10.774;2022-08-27T12:30:49;21.00;99.90
39503;DHT22;26970;49.900;10.774;2022-08-27T12:35:51;20.90;99.90
39503;DHT22;26970;49.900;10.774;2022-08-27T12:38:37;21.10;99.90
39503;DHT22;26970;49.900;10.774;2022-08-27T12:41:04;21.00;99.90
39503;DHT22;26970;49.900;10.774;2022-08-27T12:43:37;20.90;99.90
39503;DHT22;26970;49.900;10.774;2022-08-27T12:46:17;20.80;99.90
39503;DHT22;26970;49.900;10.774;2022-08-27T12:48:56;20.80;99.90
39503;DHT22;26970;49.900;10.774;2022-08-27T12:51:26;20.90;99.90
39503;DHT22;26970;49.900;10.774;2022-08-27T12:54:05;20.90;99.90
39503;DHT22;26970;49.900;10.774;2022-08-27T12:56:59;21.00;99.90
39503;DHT22;26970;49.900;10.774;2022-08-27T13:05:11;21.30;99.90
39503;DHT22;26970;49.900;10.774;2022-08-27T13:07:43;21.40;99.90
39503;DHT22;26970;49.900;10.774;2022-08-27T13:10:12;21.40;99.90
39503;DHT22;26970;49.900;10.774;2022-08-27T13:12:40;21.40;99.90
39503;DHT22;26970;49.900;10.774;2022-08-27T13:15:07;21.40;99.90
39503;DHT22;26970;49.900;10.774;2022-08-27T13:17:43;21.30;99.90
39503;DHT22;26970;49.900;10.774;2022-08-27T13:20:23;21.40;99.90
39503;DHT22;26970;49.900;10.774;2022-08-27T13:22:51;21.50;99.90
39503;DHT22;26970;49.900;10.774;2022-08-27T13:28:01;21.60;99.90
39503;DHT22;26970;49.900;10.774;2022-08-27T13:30:41;21.60;99.90
39503;DHT22;26970;49.900;10.774;2022-08-27T13:33:13;21.70;99.90
39503;DHT22;26970;49.900;10.774;2022-08-27T13:35:40;21.50;99.90
39503;DHT22;26970;49.900;10.774;2022-08-27T13:38:08;21.60;99.90
39503;DHT22;26970;49.900;10.774;2022-08-27T13:40:56;21.60;99.90
39503;DHT22;26970;49.900;10.774;2022-08-27T13:43:41;21.60;99.90
39503;DHT22;26970;49.900;10.774;2022-08-27T13:46:19;21.50;99.90
39503;DHT22;26970;49.900;10.774;2022-08-27T13:48:48;21.50;99.90
39503;DHT22;26970;49.900;10.774;2022-08-27T13:51:27;21.60;99.90
39503;DHT22;26970;49.900;10.774;2022-08-27T13:53:53;21.60;99.90
39503;DHT22;26970;49.900;10.774;2022-08-27T13:57:02;21.60;99.90
39503;DHT22;26970;49.900;10.774;2022-08-27T13:59:30;21.50;99.90
39503;DHT22;26970;49.900;10.774;2022-08-27T14:02:00;21.60;99.90
39503;DHT22;26970;49.900;10.774;2022-08-27T14:09:56;21.70;99.90
39503;DHT22;26970;49.900;10.774;2022-08-27T14:12:35;21.70;99.90
39503;DHT22;26970;49.900;10.774;2022-08-27T14:15:34;21.70;99.90
39503;DHT22;26970;49.900;10.774;2022-08-27T14:18:02;21.70;99.90
39503;DHT22;26970;49.900;10.774;2022-08-27T14:20:28;21.80;99.90
39503;DHT22;26970;49.900;10.774;2022-08-27T14:22:54;21.80;99.90
39503;DHT22;26970;49.900;10.774;2022-08-27T14:25:20;21.90;99.90
39503;DHT22;26970;49.900;10.774;2022-08-27T14:27:46;22.00;99.90
39503;DHT22;26970;49.900;10.774;2022-08-27T14:30:16;22.00;99.90
39503;DHT22;26970;49.900;10.774;2022-08-27T14:32:42;21.80;99.90
39503;DHT22;26970;49.900;10.774;2022-08-27T14:35:09;21.80;99.90
39503;DHT22;26970;49.900;10.774;2022-08-27T14:37:38;21.80;99.90
39503;DHT22;26970;49.900;10.774;2022-08-27T14:40:05;21.80;99.90
39503;DHT22;26970;49.900;10.774;2022-08-27T14:42:31;21.80;99.90
39503;DHT22;26970;49.900;10.774;2022-08-27T14:44:57;21.90;99.90
39503;DHT22;26970;49.900;10.774;2022-08-27T14:47:22;21.90;99.90
39503;DHT22;26970;49.900;10.774;2022-08-27T14:49:48;21.90;99.90
39503;DHT22;26970;49.900;10.774;2022-08-27T14:52:14;21.90;99.90
39503;DHT22;26970;49.900;10.774;2022-08-27T14:54:40;21.70;99.90
39503;DHT22;26970;49.900;10.774;2022-08-27T14:57:07;21.70;99.90
39503;DHT22;26970;49.900;10.774;2022-08-27T14:59:34;21.70;99.90
39503;DHT22;26970;49.900;10.774;2022-08-27T15:02:01;21.80;99.90
39503;DHT22;26970;49.900;10.774;2022-08-27T15:04:29;21.80;99.90
39503;DHT22;26970;49.900;10.774;2022-08-27T15:06:55;21.70;99.90
39503;DHT22;26970;49.900;10.774;2022-08-27T15:09:20;21.70;99.90
39503;DHT22;26970;49.900;10.774;2022-08-27T15:11:46;21.80;99.90
39503;DHT22;26970;49.900;10.774;2022-08-27T15:14:21;21.80;99.90
39503;DHT22;26970;49.900;10.774;2022-08-27T15:16:48;21.80;99.90
39503;DHT22;26970;49.900;10.774;2022-08-27T15:19:14;21.80;99.90
39503;DHT22;26970;49.900;10.774;2022-08-27T15:21:43;22.00;99.90
39503;DHT22;26970;49.900;10.774;2022-08-27T15:24:20;21.90;99.90
39503;DHT22;26970;49.900;10.774;2022-08-27T15:26:47;22.00;99.90
39503;DHT22;26970;49.900;10.774;2022-08-27T15:29:13;21.80;99.90
39503;DHT22;26970;49.900;10.774;2022-08-27T15:31:40;21.70;99.90
39503;DHT22;26970;49.900;10.774;2022-08-27T15:34:06;21.60;99.90
39503;DHT22;26970;49.900;10.774;2022-08-27T15:36:32;21.70;99.90
39503;DHT22;26970;49.900;10.774;2022-08-27T15:38:58;21.60;99.90
39503;DHT22;26970;49.900;10.774;2022-08-27T15:41:23;21.50;99.90
39503;DHT22;26970;49.900;10.774;2022-08-27T15:43:49;21.60;99.90
39503;DHT22;26970;49.900;10.774;2022-08-27T15:46:14;21.70;99.90
39503;DHT22;26970;49.900;10.774;2022-08-27T15:48:40;21.60;99.90
39503;DHT22;26970;49.900;10.774;2022-08-27T15:51:10;21.50;99.90
39503;DHT22;26970;49.900;10.774;2022-08-27T15:53:38;21.30;99.90
39503;DHT22;26970;49.900;10.774;2022-08-27T15:56:05;21.20;99.90
39503;DHT22;26970;49.900;10.774;2022-08-27T15:58:35;21.20;99.90
39503;DHT22;26970;49.900;10.774;2022-08-27T16:01:10;21.10;99.90
39503;DHT22;26970;49.900;10.774;2022-08-27T16:03:37;21.00;99.90
39503;DHT22;26970;49.900;10.774;2022-08-27T16:06:03;21.00;99.90
39503;DHT22;26970;49.900;10.774;2022-08-27T16:08:29;21.00;99.90
39503;DHT22;26970;49.900;10.774;2022-08-27T16:10:55;21.00;99.90
39503;DHT22;26970;49.900;10.774;2022-08-27T16:13:22;20.90;99.90
39503;DHT22;26970;49.900;10.774;2022-08-27T16:15:49;20.80;99.90
39503;DHT22;26970;49.900;10.774;2022-08-27T16:18:17;20.80;99.90
39503;DHT22;26970;49.900;10.774;2022-08-27T16:20:46;20.80;99.90
39503;DHT22;26970;49.900;10.774;2022-08-27T16:23:12;20.70;99.90
39503;DHT22;26970;49.900;10.774;2022-08-27T16:25:38;20.70;99.90
39503;DHT22;26970;49.900;10.774;2022-08-27T16:28:03;20.70;99.90
39503;DHT22;26970;49.900;10.774;2022-08-27T16:30:29;20.70;99.90
39503;DHT22;26970;49.900;10.774;2022-08-27T16:32:55;20.60;99.90
39503;DHT22;26970;49.900;10.774;2022-08-27T16:35:21;20.70;99.90
39503;DHT22;26970;49.900;10.774;2022-08-27T16:37:49;20.60;99.90
39503;DHT22;26970;49.900;10.774;2022-08-27T16:40:15;20.60;99.90
39503;DHT22;26970;49.900;10.774;2022-08-27T16:42:43;20.60;99.90
39503;DHT22;26970;49.900;10.774;2022-08-27T16:45:11;20.40;99.90
39503;DHT22;26970;49.900;10.774;2022-08-27T16:47:36;20.40;99.90
39503;DHT22;26970;49.900;10.774;2022-08-27T16:50:22;20.30;99.90
39503;DHT22;26970;49.900;10.774;2022-08-27T16:53:15;20.30;99.90
39503;DHT22;26970;49.900;10.774;2022-08-27T16:55:42;20.30;99.90